Time;durP1;ratioP1;P1;durP2;ratioP2;P2;SDS_P1;SDS_P2;PMS_P1;PMS_P2;Temp;Humidity;BMP_temperature;BMP_pressure;BME280_temperature;BME280_humidity;BME280_pressure;Samples;Min_cycle;Max_cycle;Signal;HPM_P1;HPM_P2
2022/03/26 00:01:20;;;;;;;68.63;20.98;;;;;;;;;;4982810;28;20358;-71
2022/03/26 00:03:45;;;;;;;71.63;21.42;;;;;;;;;;5026700;23;20095;-70
2022/03/26 00:06:11;;;;;;;60.17;20.13;;;;;;;;;;5042354;28;20306;-71
2022/03/26 00:08:37;;;;;;;83.43;22.38;;;;;;;;;;5040605;28;20343;-72
2022/03/26 00:11:02;;;;;;;82.03;22.63;;;;;;;;;;5035683;28;20017;-71
2022/03/26 00:13:27;;;;;;;78.38;21.83;;;;;;;;;;5035575;28;20024;-72
2022/03/26 00:15:52;;;;;;;76.70;22.02;;;;;;;;;;5039795;28;20063;-71
2022/03/26 00:18:18;;;;;;;78.93;22.90;;;;;;;;;;5035875;28;20798;-71
2022/03/26 00:20:43;;;;;;;72.43;20.92;;;;;;;;;;5037726;28;20297;-72
2022/03/26 00:23:08;;;;;;;62.42;20.13;;;;;;;;;;5041044;28;20123;-71
2022/03/26 00:25:33;;;;;;;65.43;20.35;;;;;;;;;;5037689;28;20063;-71
2022/03/26 00:27:58;;;;;;;64.20;19.53;;;;;;;;;;5044359;28;20336;-71
2022/03/26 00:30:24;;;;;;;86.20;22.70;;;;;;;;;;5047318;28;20263;-71
2022/03/26 00:32:49;;;;;;;75.97;21.87;;;;;;;;;;5036876;28;20670;-72
2022/03/26 00:35:14;;;;;;;83.50;22.93;;;;;;;;;;5041227;28;20286;-71
2022/03/26 00:37:40;;;;;;;73.30;21.87;;;;;;;;;;5036279;28;20674;-71
2022/03/26 00:40:06;;;;;;;59.38;19.08;;;;;;;;;;5037486;28;20265;-72
2022/03/26 00:42:31;;;;;;;66.57;20.10;;;;;;;;;;5041560;28;20033;-71
2022/03/26 00:44:56;;;;;;;73.77;21.10;;;;;;;;;;5042374;28;20391;-71
2022/03/26 00:47:21;;;;;;;87.93;22.70;;;;;;;;;;5038312;28;20278;-71
2022/03/26 00:49:46;;;;;;;74.90;21.05;;;;;;;;;;5040064;28;20254;-71
2022/03/26 00:52:12;;;;;;;71.80;20.40;;;;;;;;;;5049268;28;20255;-71
2022/03/26 00:54:37;;;;;;;80.78;20.63;;;;;;;;;;5030369;28;20787;-71
2022/03/26 00:57:02;;;;;;;70.18;20.67;;;;;;;;;;5034508;28;20270;-71
2022/03/26 00:59:27;;;;;;;82.80;21.13;;;;;;;;;;5039512;28;20278;-71
2022/03/26 01:01:53;;;;;;;80.95;22.10;;;;;;;;;;5037873;28;20031;-71
2022/03/26 01:04:18;;;;;;;85.40;24.05;;;;;;;;;;5047321;28;20025;-71
2022/03/26 01:06:43;;;;;;;81.90;22.98;;;;;;;;;;5042094;28;20021;-71
2022/03/26 01:09:09;;;;;;;77.15;21.95;;;;;;;;;;5040716;28;20107;-71
2022/03/26 01:11:34;;;;;;;73.72;22.65;;;;;;;;;;5043627;28;20025;-71
2022/03/26 01:13:59;;;;;;;81.10;21.92;;;;;;;;;;5040463;28;20244;-71
2022/03/26 01:16:25;;;;;;;79.53;21.73;;;;;;;;;;5042870;28;20029;-72
2022/03/26 01:18:51;;;;;;;79.72;22.35;;;;;;;;;;5039269;28;20025;-71
2022/03/26 01:21:16;;;;;;;81.30;20.92;;;;;;;;;;5040184;28;20062;-71
2022/03/26 01:23:43;;;;;;;71.72;19.67;;;;;;;;;;5044042;28;20535;-71
2022/03/26 01:26:08;;;;;;;80.63;21.90;;;;;;;;;;5040530;28;20027;-72
2022/03/26 01:28:33;;;;;;;73.72;19.73;;;;;;;;;;5039800;28;20017;-71
2022/03/26 01:31:02;;;;;;;71.05;22.20;;;;;;;;;;5031924;28;20037;-71
2022/03/26 01:33:27;;;;;;;60.75;20.13;;;;;;;;;;5040845;28;20037;-71
2022/03/26 01:35:53;;;;;;;66.82;19.58;;;;;;;;;;5040231;28;20025;-70
2022/03/26 01:38:19;;;;;;;75.13;21.10;;;;;;;;;;5041269;28;20264;-70
2022/03/26 01:40:44;;;;;;;73.90;21.77;;;;;;;;;;5040605;28;20033;-70
2022/03/26 01:43:09;;;;;;;81.60;22.63;;;;;;;;;;5039702;28;20668;-71
2022/03/26 01:45:34;;;;;;;76.88;24.73;;;;;;;;;;5039653;28;20021;-71
2022/03/26 01:48:00;;;;;;;83.85;24.02;;;;;;;;;;5040718;28;20037;-72
2022/03/26 01:50:27;;;;;;;82.60;23.38;;;;;;;;;;5044065;28;20021;-71
2022/03/26 01:52:52;;;;;;;78.07;24.00;;;;;;;;;;5038099;28;20025;-71
2022/03/26 01:55:18;;;;;;;83.65;23.70;;;;;;;;;;5039341;28;20029;-71
2022/03/26 01:57:43;;;;;;;71.40;22.27;;;;;;;;;;5044221;28;20025;-70
2022/03/26 02:00:09;;;;;;;87.88;23.02;;;;;;;;;;5040843;28;20029;-71
2022/03/26 02:02:34;;;;;;;79.43;22.75;;;;;;;;;;5040726;28;20394;-71
2022/03/26 02:04:59;;;;;;;79.07;22.08;;;;;;;;;;5047535;28;20380;-71
2022/03/26 02:07:25;;;;;;;71.43;22.27;;;;;;;;;;5034558;28;20033;-71
2022/03/26 02:09:50;;;;;;;85.10;23.27;;;;;;;;;;5042066;28;20723;-71
2022/03/26 02:12:21;;;;;;;77.63;22.98;;;;;;;;;;5035830;28;20025;-71
2022/03/26 02:14:46;;;;;;;82.63;24.55;;;;;;;;;;5037993;28;20026;-71
2022/03/26 02:17:11;;;;;;;84.05;24.25;;;;;;;;;;5036707;28;20024;-71
2022/03/26 02:19:37;;;;;;;77.78;22.58;;;;;;;;;;5039670;28;20478;-71
2022/03/26 02:22:03;;;;;;;63.95;21.35;;;;;;;;;;5041080;28;20262;-71
2022/03/26 02:24:28;;;;;;;73.32;21.45;;;;;;;;;;5037765;28;20390;-71
2022/03/26 02:26:54;;;;;;;74.60;23.08;;;;;;;;;;5042020;28;20463;-71
2022/03/26 02:29:19;;;;;;;93.13;22.75;;;;;;;;;;5041385;28;20257;-71
2022/03/26 02:31:44;;;;;;;73.45;21.10;;;;;;;;;;5036620;28;20098;-71
2022/03/26 02:34:10;;;;;;;82.95;22.38;;;;;;;;;;5042982;28;20309;-71
2022/03/26 02:36:35;;;;;;;84.40;23.27;;;;;;;;;;5044978;28;20763;-71
2022/03/26 02:39:00;;;;;;;84.05;24.15;;;;;;;;;;5038945;28;20040;-71
2022/03/26 02:41:25;;;;;;;87.28;23.75;;;;;;;;;;5034750;28;20032;-71
2022/03/26 02:43:50;;;;;;;71.30;22.63;;;;;;;;;;5041883;28;20033;-71
2022/03/26 02:46:16;;;;;;;77.82;23.42;;;;;;;;;;5040890;28;20091;-71
2022/03/26 02:48:44;;;;;;;80.50;23.20;;;;;;;;;;5043566;28;20056;-71
2022/03/26 02:51:09;;;;;;;84.03;23.40;;;;;;;;;;5039931;28;20250;-70
2022/03/26 02:53:34;;;;;;;68.03;21.83;;;;;;;;;;5039947;28;20378;-71
2022/03/26 02:55:59;;;;;;;73.72;21.00;;;;;;;;;;5041116;28;20281;-70
2022/03/26 02:58:24;;;;;;;78.70;22.13;;;;;;;;;;5045635;28;20143;-70
2022/03/26 03:00:50;;;;;;;78.60;23.80;;;;;;;;;;5047271;28;20380;-71
2022/03/26 03:03:16;;;;;;;77.80;21.17;;;;;;;;;;5037292;28;20459;-71
2022/03/26 03:05:42;;;;;;;89.53;22.55;;;;;;;;;;5043483;28;20435;-71
2022/03/26 03:08:07;;;;;;;78.15;22.25;;;;;;;;;;5044592;28;20035;-71
2022/03/26 03:10:33;;;;;;;77.38;21.70;;;;;;;;;;5040376;28;20025;-71
2022/03/26 03:12:59;;;;;;;87.20;25.17;;;;;;;;;;5044123;28;20067;-71
2022/03/26 03:15:24;;;;;;;95.13;24.10;;;;;;;;;;5035620;28;20031;-70
2022/03/26 03:17:50;;;;;;;73.28;22.15;;;;;;;;;;5039857;28;20025;-71
2022/03/26 03:20:16;;;;;;;74.00;21.83;;;;;;;;;;5032697;28;20025;-71
2022/03/26 03:22:41;;;;;;;89.97;24.00;;;;;;;;;;5033908;28;20162;-71
2022/03/26 03:25:07;;;;;;;73.60;20.70;;;;;;;;;;5056736;28;20072;-72
2022/03/26 03:27:32;;;;;;;82.78;26.25;;;;;;;;;;5042588;28;20032;-71
2022/03/26 03:29:57;;;;;;;75.28;22.20;;;;;;;;;;5035455;28;20040;-72
2022/03/26 03:32:23;;;;;;;81.55;23.25;;;;;;;;;;5035385;28;20028;-71
2022/03/26 03:34:48;;;;;;;78.57;22.70;;;;;;;;;;5041632;28;20025;-71
2022/03/26 03:37:13;;;;;;;84.37;22.93;;;;;;;;;;5039611;28;20111;-71
2022/03/26 03:39:39;;;;;;;75.50;23.90;;;;;;;;;;5045220;28;20767;-71
2022/03/26 03:42:04;;;;;;;75.20;21.23;;;;;;;;;;5036109;28;20315;-71
2022/03/26 03:44:30;;;;;;;70.18;20.98;;;;;;;;;;5044961;28;20047;-71
2022/03/26 03:46:55;;;;;;;77.85;21.52;;;;;;;;;;5044820;28;20017;-71
2022/03/26 03:49:20;;;;;;;68.78;21.15;;;;;;;;;;5045113;28;20048;-71
2022/03/26 03:51:46;;;;;;;80.45;23.35;;;;;;;;;;5038327;28;20100;-70
2022/03/26 03:54:11;;;;;;;71.25;22.52;;;;;;;;;;5042894;28;20037;-71
2022/03/26 03:56:37;;;;;;;82.78;23.95;;;;;;;;;;5045035;28;20028;-70
2022/03/26 03:59:02;;;;;;;80.78;22.40;;;;;;;;;;5038878;28;20025;-70
2022/03/26 04:01:27;;;;;;;86.00;24.40;;;;;;;;;;5037700;28;20040;-71
2022/03/26 04:03:52;;;;;;;91.53;23.27;;;;;;;;;;5039117;28;20099;-71
2022/03/26 04:06:18;;;;;;;77.35;20.85;;;;;;;;;;5040849;28;20505;-71
2022/03/26 04:08:43;;;;;;;80.60;23.05;;;;;;;;;;5036699;28;20117;-71
2022/03/26 04:11:08;;;;;;;78.20;20.42;;;;;;;;;;5040731;28;20039;-70
2022/03/26 04:13:33;;;;;;;61.35;20.83;;;;;;;;;;5042474;28;20025;-72
2022/03/26 04:15:59;;;;;;;81.82;21.23;;;;;;;;;;5039997;28;20037;-71
2022/03/26 04:18:24;;;;;;;80.50;20.52;;;;;;;;;;5040493;28;20068;-72
2022/03/26 04:20:50;;;;;;;72.90;20.75;;;;;;;;;;5038223;28;20022;-71
2022/03/26 04:23:17;;;;;;;82.32;21.17;;;;;;;;;;5036543;28;20133;-71
2022/03/26 04:25:43;;;;;;;81.78;22.67;;;;;;;;;;5039819;28;20020;-71
2022/03/26 04:28:08;;;;;;;91.13;23.98;;;;;;;;;;5039816;28;20021;-71
2022/03/26 04:30:33;;;;;;;80.20;22.08;;;;;;;;;;5032017;28;20419;-71
2022/03/26 04:32:58;;;;;;;76.80;21.75;;;;;;;;;;5042769;28;20087;-72
2022/03/26 04:35:24;;;;;;;80.87;21.83;;;;;;;;;;5039315;28;21123;-71
2022/03/26 04:37:51;;;;;;;71.47;20.38;;;;;;;;;;5042968;28;20278;-71
2022/03/26 04:40:16;;;;;;;68.13;19.65;;;;;;;;;;5038380;28;20269;-72
2022/03/26 04:42:42;;;;;;;80.25;24.00;;;;;;;;;;5043705;28;20022;-72
2022/03/26 04:45:09;;;;;;;82.20;22.45;;;;;;;;;;5045534;28;20028;-71
2022/03/26 04:47:34;;;;;;;73.47;21.17;;;;;;;;;;5039828;28;20054;-72
2022/03/26 04:49:59;;;;;;;89.68;21.48;;;;;;;;;;5046049;28;20021;-72
2022/03/26 04:52:24;;;;;;;81.88;21.50;;;;;;;;;;5041303;28;20032;-71
2022/03/26 04:54:50;;;;;;;70.32;21.90;;;;;;;;;;5046394;28;20107;-71
2022/03/26 04:57:17;;;;;;;77.82;21.88;;;;;;;;;;5041547;28;20315;-71
2022/03/26 04:59:43;;;;;;;75.80;21.55;;;;;;;;;;5038993;28;20466;-72
2022/03/26 05:02:08;;;;;;;68.30;20.83;;;;;;;;;;5041843;28;20112;-72
2022/03/26 05:04:33;;;;;;;77.50;20.83;;;;;;;;;;5039956;28;20283;-71
2022/03/26 05:06:58;;;;;;;67.30;21.23;;;;;;;;;;5035711;28;20275;-71
2022/03/26 05:09:23;;;;;;;64.30;19.60;;;;;;;;;;5046085;28;20029;-72
2022/03/26 05:11:49;;;;;;;78.85;20.77;;;;;;;;;;5040332;28;20029;-71
2022/03/26 05:14:14;;;;;;;86.32;23.20;;;;;;;;;;5038637;28;20480;-71
2022/03/26 05:16:39;;;;;;;81.68;21.30;;;;;;;;;;5033624;28;20302;-71
2022/03/26 05:19:04;;;;;;;82.03;23.02;;;;;;;;;;5049086;28;20365;-71
2022/03/26 05:21:29;;;;;;;81.32;21.85;;;;;;;;;;5046359;28;20281;-71
2022/03/26 05:23:54;;;;;;;95.37;24.50;;;;;;;;;;5045128;28;20340;-71
2022/03/26 05:26:22;;;;;;;90.77;24.70;;;;;;;;;;5038861;28;20276;-72
2022/03/26 05:28:48;;;;;;;92.93;24.83;;;;;;;;;;5037869;28;20871;-71
2022/03/26 05:31:13;;;;;;;90.03;23.85;;;;;;;;;;5043686;28;20029;-71
2022/03/26 05:33:38;;;;;;;81.57;22.83;;;;;;;;;;5040691;28;20058;-71
2022/03/26 05:36:04;;;;;;;87.30;23.58;;;;;;;;;;5042265;28;20028;-71
2022/03/26 05:38:31;;;;;;;81.88;24.58;;;;;;;;;;5043162;28;20611;-74
2022/03/26 05:40:56;;;;;;;91.25;24.67;;;;;;;;;;5045343;28;20066;-72
2022/03/26 05:43:21;;;;;;;84.22;22.20;;;;;;;;;;5041844;28;20028;-72
2022/03/26 05:45:46;;;;;;;84.15;21.70;;;;;;;;;;5036922;28;20082;-72
2022/03/26 05:48:12;;;;;;;81.95;23.10;;;;;;;;;;5029974;28;20278;-72
2022/03/26 05:50:37;;;;;;;86.60;23.38;;;;;;;;;;5041592;28;20017;-73
2022/03/26 05:53:02;;;;;;;87.00;23.23;;;;;;;;;;5045168;28;20048;-73
2022/03/26 05:55:28;;;;;;;84.32;24.83;;;;;;;;;;5043956;28;20147;-72
2022/03/26 05:57:53;;;;;;;89.68;23.83;;;;;;;;;;5046317;28;20029;-73
2022/03/26 06:00:18;;;;;;;85.55;24.30;;;;;;;;;;5047374;28;20070;-73
2022/03/26 06:02:43;;;;;;;97.38;27.83;;;;;;;;;;5033276;28;20021;-72
2022/03/26 06:05:08;;;;;;;82.80;24.75;;;;;;;;;;5041860;28;20086;-73
2022/03/26 06:07:34;;;;;;;84.35;26.63;;;;;;;;;;5043350;28;20025;-74
2022/03/26 06:09:59;;;;;;;93.32;24.52;;;;;;;;;;5038507;28;20048;-73
2022/03/26 06:12:24;;;;;;;92.80;24.90;;;;;;;;;;5040797;28;22046;-73
2022/03/26 06:14:50;;;;;;;91.05;25.33;;;;;;;;;;5039876;28;20312;-73
2022/03/26 06:17:15;;;;;;;114.30;36.83;;;;;;;;;;5041428;28;20068;-73
2022/03/26 06:19:40;;;;;;;100.10;30.73;;;;;;;;;;5035735;28;20044;-73
2022/03/26 06:22:06;;;;;;;91.15;24.70;;;;;;;;;;5039032;28;20524;-73
2022/03/26 06:24:31;;;;;;;90.78;22.83;;;;;;;;;;5039542;28;20017;-73
2022/03/26 06:26:56;;;;;;;97.32;27.60;;;;;;;;;;5037056;28;20028;-72
2022/03/26 06:29:21;;;;;;;101.27;25.00;;;;;;;;;;5043475;28;20032;-73
2022/03/26 06:31:47;;;;;;;86.30;22.90;;;;;;;;;;5036624;28;20309;-72
2022/03/26 06:34:12;;;;;;;95.53;26.60;;;;;;;;;;5039348;28;20483;-72
2022/03/26 06:36:39;;;;;;;85.88;24.63;;;;;;;;;;5039909;28;20107;-72
2022/03/26 06:39:06;;;;;;;97.20;27.05;;;;;;;;;;5038753;28;20040;-72
2022/03/26 06:41:31;;;;;;;92.82;25.02;;;;;;;;;;5040495;28;20032;-72
2022/03/26 06:43:56;;;;;;;88.78;25.40;;;;;;;;;;5041712;28;20376;-73
2022/03/26 06:46:21;;;;;;;92.15;25.42;;;;;;;;;;5042395;28;20029;-72
2022/03/26 06:48:46;;;;;;;90.27;26.53;;;;;;;;;;5038308;28;20263;-72
2022/03/26 06:51:13;;;;;;;90.25;27.75;;;;;;;;;;5038937;28;20270;-72
2022/03/26 06:53:38;;;;;;;105.68;31.13;;;;;;;;;;5039174;28;20178;-72
2022/03/26 06:56:06;;;;;;;150.02;63.28;;;;;;;;;;5040218;28;20108;-72
2022/03/26 06:58:32;;;;;;;148.57;50.75;;;;;;;;;;5036797;28;20033;-72
2022/03/26 07:00:58;;;;;;;91.68;28.58;;;;;;;;;;5042402;28;21908;-72
2022/03/26 07:03:24;;;;;;;83.10;26.00;;;;;;;;;;5040313;28;20029;-72
2022/03/26 07:05:49;;;;;;;95.85;26.10;;;;;;;;;;5039053;28;20025;-72
2022/03/26 07:08:14;;;;;;;96.28;28.05;;;;;;;;;;5040160;28;20059;-71
2022/03/26 07:10:44;;;;;;;124.37;31.27;;;;;;;;;;5042649;28;20381;-71
2022/03/26 07:13:10;;;;;;;105.70;32.63;;;;;;;;;;5040651;28;20286;-71
2022/03/26 07:15:35;;;;;;;104.65;31.08;;;;;;;;;;5037635;28;20124;-72
2022/03/26 07:18:00;;;;;;;118.32;33.50;;;;;;;;;;5038074;28;20330;-72
2022/03/26 07:20:25;;;;;;;133.38;35.50;;;;;;;;;;5040414;28;20057;-72
2022/03/26 07:22:51;;;;;;;163.03;39.37;;;;;;;;;;5039772;28;20036;-72
2022/03/26 07:25:16;;;;;;;167.52;38.92;;;;;;;;;;5030786;28;20355;-72
2022/03/26 07:27:41;;;;;;;184.80;42.63;;;;;;;;;;5041205;28;20056;-72
2022/03/26 07:30:07;;;;;;;168.73;41.87;;;;;;;;;;5041640;28;20371;-72
2022/03/26 07:32:32;;;;;;;166.57;41.28;;;;;;;;;;5042998;28;20265;-72
2022/03/26 07:34:57;;;;;;;164.43;41.63;;;;;;;;;;5042507;28;20032;-72
2022/03/26 07:37:23;;;;;;;164.07;41.07;;;;;;;;;;5037748;28;20273;-71
2022/03/26 07:39:48;;;;;;;168.13;42.63;;;;;;;;;;5035516;28;20042;-71
2022/03/26 07:42:13;;;;;;;175.05;45.72;;;;;;;;;;5035312;28;20135;-71
2022/03/26 07:44:39;;;;;;;171.30;43.88;;;;;;;;;;5037458;28;20487;-71
2022/03/26 07:47:04;;;;;;;169.40;40.80;;;;;;;;;;5034894;28;20367;-71
2022/03/26 07:49:29;;;;;;;169.90;41.28;;;;;;;;;;5037559;28;20053;-72
2022/03/26 07:51:54;;;;;;;163.85;40.95;;;;;;;;;;5040597;28;20147;-72
2022/03/26 07:54:20;;;;;;;164.33;43.67;;;;;;;;;;5033059;28;20128;-72
2022/03/26 07:56:45;;;;;;;153.33;41.10;;;;;;;;;;5031885;28;20021;-72
2022/03/26 07:59:10;;;;;;;172.37;42.67;;;;;;;;;;5037293;28;20028;-72
2022/03/26 08:01:35;;;;;;;167.20;42.57;;;;;;;;;;5037511;28;20093;-70
2022/03/26 08:04:01;;;;;;;158.27;40.03;;;;;;;;;;5039788;28;20037;-71
2022/03/26 08:06:26;;;;;;;152.05;40.67;;;;;;;;;;5039482;28;20024;-72
2022/03/26 08:08:51;;;;;;;173.55;43.50;;;;;;;;;;5040496;28;20464;-73
2022/03/26 08:11:17;;;;;;;152.23;41.30;;;;;;;;;;5043253;28;20024;-73
2022/03/26 08:13:42;;;;;;;162.93;39.72;;;;;;;;;;5043964;28;20258;-71
2022/03/26 08:16:08;;;;;;;159.85;38.75;;;;;;;;;;5039986;28;20030;-73
2022/03/26 08:18:33;;;;;;;159.40;37.78;;;;;;;;;;5039437;28;20071;-73
2022/03/26 08:20:58;;;;;;;163.05;41.58;;;;;;;;;;5039915;28;20068;-73
2022/03/26 08:23:23;;;;;;;164.33;40.33;;;;;;;;;;5040091;28;20360;-73
2022/03/26 08:28:32;;;;;;;152.73;38.75;;;;;;;;;;5041219;28;20039;-72
2022/03/26 08:30:57;;;;;;;143.52;37.53;;;;;;;;;;5036853;28;20028;-72
2022/03/26 08:33:23;;;;;;;149.17;38.93;;;;;;;;;;5039834;28;20123;-72
2022/03/26 08:35:48;;;;;;;151.20;36.75;;;;;;;;;;5041597;28;20272;-73
2022/03/26 08:38:13;;;;;;;139.33;37.77;;;;;;;;;;5038152;28;20040;-73
2022/03/26 08:40:38;;;;;;;142.27;35.97;;;;;;;;;;5040457;28;20095;-72
2022/03/26 08:43:05;;;;;;;138.83;37.30;;;;;;;;;;5039323;28;20028;-72
2022/03/26 08:45:30;;;;;;;139.80;37.47;;;;;;;;;;5039961;28;20542;-72
2022/03/26 08:47:55;;;;;;;137.47;35.80;;;;;;;;;;5042652;28;20035;-72
2022/03/26 08:50:21;;;;;;;142.85;36.13;;;;;;;;;;5040171;28;20275;-72
2022/03/26 08:52:47;;;;;;;140.35;33.10;;;;;;;;;;5037062;28;20459;-72
2022/03/26 08:55:13;;;;;;;145.60;35.58;;;;;;;;;;5038356;28;20040;-72
2022/03/26 08:57:38;;;;;;;140.90;36.00;;;;;;;;;;5041278;28;20406;-72
2022/03/26 09:00:03;;;;;;;128.10;34.85;;;;;;;;;;5042701;28;20033;-72
2022/03/26 09:02:28;;;;;;;144.50;37.30;;;;;;;;;;5036023;28;20061;-72
2022/03/26 09:04:54;;;;;;;152.48;35.40;;;;;;;;;;5039925;28;20082;-72
2022/03/26 09:07:19;;;;;;;158.50;36.87;;;;;;;;;;5038135;28;20040;-72
2022/03/26 09:09:44;;;;;;;148.15;36.58;;;;;;;;;;5042079;28;20024;-72
2022/03/26 09:12:10;;;;;;;146.80;35.17;;;;;;;;;;5041875;28;20032;-72
2022/03/26 09:14:35;;;;;;;143.73;35.97;;;;;;;;;;5041372;28;20395;-72
2022/03/26 09:17:00;;;;;;;156.68;38.97;;;;;;;;;;5038599;28;20194;-72
2022/03/26 09:19:25;;;;;;;148.45;37.47;;;;;;;;;;5038036;28;20064;-72
2022/03/26 09:21:51;;;;;;;160.33;37.90;;;;;;;;;;5040372;28;20036;-70
2022/03/26 09:24:16;;;;;;;157.30;37.77;;;;;;;;;;5039350;28;20086;-72
2022/03/26 09:26:42;;;;;;;144.15;38.67;;;;;;;;;;5036747;28;20116;-72
2022/03/26 09:29:07;;;;;;;146.68;37.13;;;;;;;;;;5034890;28;20028;-72
2022/03/26 09:31:32;;;;;;;145.15;39.65;;;;;;;;;;5036259;28;20123;-71
2022/03/26 09:33:57;;;;;;;149.20;38.17;;;;;;;;;;5042602;28;20828;-76
2022/03/26 09:36:23;;;;;;;152.40;39.45;;;;;;;;;;5031356;28;20268;-72
2022/03/26 09:38:48;;;;;;;161.63;40.23;;;;;;;;;;5043796;28;20124;-71
2022/03/26 09:41:13;;;;;;;179.67;48.07;;;;;;;;;;5045761;28;20016;-71
2022/03/26 09:43:39;;;;;;;189.15;47.97;;;;;;;;;;5042247;28;20343;-72
2022/03/26 09:46:05;;;;;;;168.20;44.75;;;;;;;;;;5045102;28;20024;-72
2022/03/26 09:48:30;;;;;;;183.32;47.53;;;;;;;;;;5039066;28;20123;-75
2022/03/26 09:50:56;;;;;;;201.03;51.43;;;;;;;;;;5040679;28;20017;-76
2022/03/26 09:53:21;;;;;;;187.60;45.42;;;;;;;;;;5038190;28;20034;-76
2022/03/26 09:55:47;;;;;;;184.35;45.53;;;;;;;;;;5036956;28;20021;-76
2022/03/26 09:58:12;;;;;;;186.43;45.58;;;;;;;;;;5038931;28;20031;-76
2022/03/26 10:00:38;;;;;;;168.52;43.78;;;;;;;;;;5033513;28;20319;-76
2022/03/26 10:03:03;;;;;;;171.13;43.43;;;;;;;;;;5037925;28;20499;-76
2022/03/26 10:05:32;;;;;;;143.83;38.17;;;;;;;;;;5036180;28;20090;-75
2022/03/26 10:07:58;;;;;;;137.50;36.72;;;;;;;;;;5034495;28;20311;-75
2022/03/26 10:10:24;;;;;;;104.72;33.97;;;;;;;;;;5037658;28;20024;-78
2022/03/26 10:12:51;;;;;;;104.07;30.65;;;;;;;;;;5036224;28;20025;-77
2022/03/26 10:15:16;;;;;;;101.68;29.98;;;;;;;;;;5031850;28;20024;-76
2022/03/26 10:17:41;;;;;;;82.83;25.67;;;;;;;;;;5037674;28;20691;-74
2022/03/26 10:20:15;;;;;;;83.22;28.25;;;;;;;;;;5032775;28;20405;-75
2022/03/26 10:22:45;;;;;;;75.82;25.95;;;;;;;;;;5040917;28;20152;-75
2022/03/26 10:25:11;;;;;;;63.20;22.35;;;;;;;;;;5036060;28;20029;-74
2022/03/26 10:27:42;;;;;;;68.80;22.80;;;;;;;;;;5034200;28;20375;-72
2022/03/26 10:30:07;;;;;;;74.43;28.17;;;;;;;;;;5037398;28;20136;-72
2022/03/26 10:32:40;;;;;;;68.10;23.13;;;;;;;;;;5035904;28;20419;-72
2022/03/26 10:35:13;;;;;;;69.03;25.40;;;;;;;;;;5039356;28;20067;-73
2022/03/26 10:37:46;;;;;;;76.65;25.10;;;;;;;;;;5053161;28;21462;-72
2022/03/26 10:40:15;;;;;;;79.18;26.85;;;;;;;;;;5040835;28;20028;-72
2022/03/26 10:42:40;;;;;;;61.05;22.27;;;;;;;;;;5037790;28;20028;-72
2022/03/26 10:45:12;;;;;;;67.37;25.13;;;;;;;;;;5036328;28;20033;-72
2022/03/26 10:47:37;;;;;;;72.78;26.38;;;;;;;;;;5034703;28;20025;-72
2022/03/26 10:50:04;;;;;;;56.90;20.27;;;;;;;;;;5039804;28;20128;-72
2022/03/26 10:52:30;;;;;;;49.97;20.40;;;;;;;;;;5038315;28;20695;-73
2022/03/26 10:54:55;;;;;;;56.83;21.88;;;;;;;;;;5033106;28;20021;-72
2022/03/26 10:57:24;;;;;;;57.58;22.55;;;;;;;;;;5038575;28;20103;-73
2022/03/26 10:59:50;;;;;;;47.65;18.95;;;;;;;;;;5039066;28;20040;-72
2022/03/26 11:02:15;;;;;;;60.10;19.80;;;;;;;;;;5035052;28;20078;-74
2022/03/26 11:04:41;;;;;;;50.17;20.52;;;;;;;;;;5033994;28;20494;-74
2022/03/26 11:07:07;;;;;;;57.72;20.25;;;;;;;;;;5039963;28;20024;-74
2022/03/26 11:09:32;;;;;;;56.05;21.98;;;;;;;;;;5037601;28;20017;-73
2022/03/26 11:11:58;;;;;;;53.28;19.60;;;;;;;;;;5042449;28;20713;-71
2022/03/26 11:14:25;;;;;;;49.30;20.63;;;;;;;;;;5039236;28;20046;-72
2022/03/26 11:17:02;;;;;;;55.17;24.05;;;;;;;;;;5032137;28;20032;-72
2022/03/26 11:19:37;;;;;;;59.75;21.75;;;;;;;;;;5035708;28;20021;-73
2022/03/26 11:22:12;;;;;;;57.53;21.63;;;;;;;;;;5039532;28;20037;-74
2022/03/26 11:24:49;;;;;;;49.47;21.08;;;;;;;;;;5036321;28;20025;-73
2022/03/26 11:27:23;;;;;;;57.55;21.45;;;;;;;;;;5036387;28;20630;-72
2022/03/26 11:30:10;;;;;;;49.95;18.02;;;;;;;;;;5034957;28;20116;-74
2022/03/26 11:32:40;;;;;;;51.03;18.77;;;;;;;;;;5036979;28;20036;-72
2022/03/26 11:35:08;;;;;;;51.50;18.23;;;;;;;;;;5041529;28;20034;-73
2022/03/26 11:37:34;;;;;;;40.95;18.33;;;;;;;;;;5034528;28;20032;-72
2022/03/26 11:39:59;;;;;;;50.25;20.33;;;;;;;;;;5036236;28;20413;-70
2022/03/26 11:42:30;;;;;;;55.47;20.77;;;;;;;;;;5035968;28;20032;-77
2022/03/26 11:50:41;;;;;;;50.50;20.02;;;;;;;;;;5034928;28;20035;-74
2022/03/26 11:53:10;;;;;;;43.75;19.27;;;;;;;;;;5035003;28;20021;-72
2022/03/26 11:55:46;;;;;;;37.50;17.20;;;;;;;;;;5034808;28;20036;-72
2022/03/26 11:58:12;;;;;;;33.88;16.55;;;;;;;;;;5036775;28;20032;-74
2022/03/26 12:00:51;;;;;;;36.03;16.83;;;;;;;;;;5042106;28;20653;-78
2022/03/26 12:03:20;;;;;;;43.85;16.58;;;;;;;;;;5037444;28;20037;-73
2022/03/26 12:08:35;;;;;;;29.73;14.38;;;;;;;;;;5035547;28;20081;-74
2022/03/26 12:11:00;;;;;;;24.67;13.88;;;;;;;;;;5039412;28;20047;-75
2022/03/26 12:13:31;;;;;;;29.63;13.03;;;;;;;;;;5041211;28;20707;-75
2022/03/26 12:16:00;;;;;;;28.75;12.68;;;;;;;;;;5040473;28;20575;-74
2022/03/26 12:18:38;;;;;;;26.58;12.00;;;;;;;;;;5055209;28;20044;-76
2022/03/26 12:21:18;;;;;;;27.63;12.75;;;;;;;;;;5040783;28;20029;-73
2022/03/26 12:23:45;;;;;;;29.60;13.65;;;;;;;;;;5039299;28;20388;-75
2022/03/26 12:26:12;;;;;;;32.92;14.82;;;;;;;;;;5036431;28;20380;-75
2022/03/26 12:28:38;;;;;;;30.30;14.40;;;;;;;;;;5041331;28;20025;-75
2022/03/26 12:31:04;;;;;;;33.00;13.63;;;;;;;;;;5039939;28;20030;-75
2022/03/26 12:33:38;;;;;;;29.35;12.68;;;;;;;;;;5041933;28;20029;-75
2022/03/26 12:36:04;;;;;;;28.38;10.93;;;;;;;;;;5040112;28;20131;-76
2022/03/26 12:38:29;;;;;;;30.27;11.73;;;;;;;;;;5044814;28;20079;-76
2022/03/26 12:40:56;;;;;;;24.50;12.37;;;;;;;;;;5050329;28;20147;-74
2022/03/26 12:43:21;;;;;;;23.02;12.43;;;;;;;;;;5058913;28;20118;-74
2022/03/26 12:45:47;;;;;;;24.13;12.32;;;;;;;;;;5043245;28;20459;-71
2022/03/26 12:48:12;;;;;;;40.53;14.40;;;;;;;;;;5039104;28;20017;-72
2022/03/26 12:50:39;;;;;;;31.67;13.82;;;;;;;;;;5041918;28;20025;-70
2022/03/26 12:53:12;;;;;;;27.98;14.30;;;;;;;;;;5040579;28;20088;-68
2022/03/26 12:55:37;;;;;;;34.38;12.82;;;;;;;;;;5038582;28;20086;-72
2022/03/26 13:00:58;;;;;;;38.13;15.88;;;;;;;;;;5047764;28;20521;-72
2022/03/26 13:03:26;;;;;;;38.10;17.50;;;;;;;;;;5039916;28;20029;-72
2022/03/26 13:05:51;;;;;;;40.55;17.42;;;;;;;;;;5045126;28;20108;-72
2022/03/26 13:08:16;;;;;;;34.90;15.93;;;;;;;;;;5041918;28;20036;-73
2022/03/26 13:10:42;;;;;;;46.23;19.40;;;;;;;;;;5042283;28;20371;-72
2022/03/26 13:13:08;;;;;;;38.28;17.95;;;;;;;;;;5039739;28;20101;-72
2022/03/26 13:15:34;;;;;;;45.37;18.50;;;;;;;;;;5041819;28;20128;-71
2022/03/26 13:18:01;;;;;;;38.22;16.85;;;;;;;;;;5044803;28;20274;-72
2022/03/26 13:20:30;;;;;;;38.80;18.17;;;;;;;;;;5045187;28;20111;-72
2022/03/26 13:22:57;;;;;;;45.78;19.92;;;;;;;;;;5058812;28;20116;-71
2022/03/26 13:25:22;;;;;;;49.60;19.80;;;;;;;;;;5042054;28;20025;-72
2022/03/26 13:27:47;;;;;;;49.65;21.20;;;;;;;;;;5038498;28;20032;-69
2022/03/26 13:30:14;;;;;;;56.07;22.17;;;;;;;;;;5040590;28;20032;-70
2022/03/26 13:32:43;;;;;;;59.08;21.92;;;;;;;;;;5040993;28;20277;-73
2022/03/26 13:35:08;;;;;;;52.00;23.98;;;;;;;;;;5040162;28;20675;-73
2022/03/26 13:37:34;;;;;;;54.70;23.13;;;;;;;;;;5044441;28;20029;-72
2022/03/26 13:40:01;;;;;;;59.65;22.42;;;;;;;;;;5040608;28;20060;-72
2022/03/26 13:42:26;;;;;;;59.17;23.10;;;;;;;;;;5038081;28;20638;-73
2022/03/26 13:44:53;;;;;;;73.05;34.33;;;;;;;;;;5037589;28;20046;-72
2022/03/26 13:47:20;;;;;;;54.70;22.67;;;;;;;;;;5042209;28;20040;-73
2022/03/26 13:49:46;;;;;;;56.70;23.02;;;;;;;;;;5041827;28;20085;-72
2022/03/26 13:52:32;;;;;;;59.67;22.70;;;;;;;;;;5044020;28;20525;-69
2022/03/26 13:54:57;;;;;;;65.93;21.98;;;;;;;;;;5037613;28;20044;-66
2022/03/26 13:57:35;;;;;;;60.25;23.00;;;;;;;;;;5039146;28;20075;-67
2022/03/26 14:00:08;;;;;;;58.78;23.95;;;;;;;;;;5054388;28;20115;-70
2022/03/26 14:02:34;;;;;;;70.85;26.02;;;;;;;;;;5043465;28;20068;-70
2022/03/26 14:04:59;;;;;;;56.50;23.90;;;;;;;;;;5037769;28;20119;-70
2022/03/26 14:07:24;;;;;;;67.55;26.20;;;;;;;;;;5038132;28;20029;-72
2022/03/26 14:09:53;;;;;;;68.78;25.30;;;;;;;;;;5040891;28;20032;-72
2022/03/26 14:12:18;;;;;;;60.63;23.75;;;;;;;;;;5042317;28;20056;-70
2022/03/26 14:14:43;;;;;;;60.88;23.23;;;;;;;;;;5039280;28;20112;-70
2022/03/26 14:17:09;;;;;;;51.30;19.27;;;;;;;;;;5039374;28;20044;-69
2022/03/26 14:19:34;;;;;;;62.95;22.52;;;;;;;;;;5035341;28;20214;-67
2022/03/26 14:21:59;;;;;;;57.63;22.35;;;;;;;;;;5042511;28;20043;-70